Social login voor leden:

1. METAR EBOS

METAR EBOS 011320Z 02019KT CAVOK 18/12 Q1021 TEMPO 02015G25KT

2. TAF EBOS

TAF EBOS 011320Z 02019KT CAVOK 18/12 Q1021 TEMPO 02015G25KT

3. NOTAMS EBOS

Klik hier voor een overzicht van de notams.

Deze pagina promoten

Noordzee Vliegclub - Nieuwpoortsesteenweg 947 8400 Oostende - Tel 059 30 04 79 - info@nzvc.be - 

 - Copyright 2020